createdAt,value
2023-02-24T00:00:33.348Z,1.35
2023-02-24T00:03:11.945Z,3.13
2023-02-24T00:05:43.685Z,3.55
2023-02-24T00:08:12.840Z,3.22
2023-02-24T00:10:43.607Z,1.67
2023-02-24T00:13:13.105Z,3.33
2023-02-24T00:15:42.382Z,1.52
2023-02-24T00:18:11.433Z,2.60
2023-02-24T00:20:40.442Z,1.95
2023-02-24T00:23:10.576Z,2.55
2023-02-24T00:25:39.615Z,3.28
2023-02-24T00:28:10.267Z,2.45
2023-02-24T00:30:40.102Z,2.45
2023-02-24T00:33:09.239Z,6.45
2023-02-24T00:35:38.392Z,5.97
2023-02-24T00:38:07.431Z,2.42
2023-02-24T00:40:38.104Z,3.10
2023-02-24T00:43:08.903Z,1.48
2023-02-24T00:45:42.290Z,1.85
2023-02-24T00:48:11.577Z,1.08
2023-02-24T00:50:40.525Z,1.58
2023-02-24T00:53:09.649Z,1.70
2023-02-24T00:55:38.705Z,3.67
2023-02-24T00:58:08.174Z,1.55
2023-02-24T01:00:39.593Z,3.45
2023-02-24T01:03:08.705Z,2.83
2023-02-24T01:05:38.623Z,2.20
2023-02-24T01:08:07.615Z,2.72
2023-02-24T01:10:36.681Z,2.38
2023-02-24T01:13:05.657Z,2.95
2023-02-24T01:15:34.662Z,2.00
2023-02-24T01:18:05.376Z,3.70
2023-02-24T01:20:34.353Z,3.53
2023-02-24T01:23:04.258Z,2.08
2023-02-24T01:25:33.210Z,1.40
2023-02-24T01:28:02.930Z,1.58
2023-02-24T01:30:32.251Z,1.45
2023-02-24T01:33:02.483Z,4.10
2023-02-24T01:35:35.643Z,2.75
2023-02-24T01:38:04.670Z,3.22
2023-02-24T01:40:33.826Z,2.55
2023-02-24T01:43:03.022Z,4.47
2023-02-24T01:45:36.317Z,3.17
2023-02-24T01:48:08.012Z,2.85
2023-02-24T01:50:39.827Z,5.10
2023-02-24T01:53:09.607Z,5.60
2023-02-24T01:55:43.717Z,7.40
2023-02-24T01:58:20.413Z,5.75
2023-02-24T02:00:49.555Z,3.67
2023-02-24T02:03:30.872Z,4.07
2023-02-24T02:06:05.348Z,4.63
2023-02-24T02:08:37.553Z,3.30
2023-02-24T02:11:09.105Z,6.30
2023-02-24T02:13:40.665Z,3.47
2023-02-24T02:16:39.325Z,2.45
2023-02-24T02:19:35.961Z,3.22
2023-02-24T02:22:30.225Z,4.90
2023-02-24T02:25:08.342Z,5.00
2023-02-24T02:28:20.719Z,6.80
2023-02-24T02:31:26.745Z,4.18
2023-02-24T02:34:12.591Z,4.85
2023-02-24T02:36:58.202Z,4.50
2023-02-24T02:39:34.696Z,5.25
2023-02-24T02:44:40.987Z,3.47
2023-02-24T02:47:15.175Z,5.50
2023-02-24T02:49:50.577Z,4.07
2023-02-24T02:52:25.891Z,3.95
2023-02-24T02:55:00.696Z,4.15
2023-02-24T02:57:31.865Z,4.47
2023-02-24T03:00:10.888Z,6.03
2023-02-24T03:02:44.128Z,4.00
2023-02-24T03:05:21.074Z,5.35
2023-02-24T03:07:55.580Z,4.75
2023-02-24T03:10:28.474Z,6.13
2023-02-24T03:13:00.737Z,4.30
2023-02-24T03:15:32.528Z,6.45
2023-02-24T03:18:11.049Z,6.18
2023-02-24T03:20:47.685Z,7.10
2023-02-24T03:23:19.245Z,4.82
2023-02-24T03:25:54.703Z,4.15
2023-02-24T03:28:30.248Z,6.03
2023-02-24T03:31:05.697Z,8.13
2023-02-24T03:33:41.922Z,5.78
2023-02-24T03:36:15.826Z,7.32
2023-02-24T03:38:50.546Z,6.55
2023-02-24T03:41:20.084Z,9.80
2023-02-24T03:43:52.001Z,8.98
2023-02-24T03:46:21.241Z,7.00
2023-02-24T03:48:56.584Z,7.25
2023-02-24T03:51:28.449Z,8.32
2023-02-24T03:54:04.876Z,7.25
2023-02-24T03:59:19.568Z,7.68
2023-02-24T04:01:58.660Z,9.85
2023-02-24T04:04:34.351Z,12.15
2023-02-24T04:07:10.664Z,12.55
2023-02-24T04:09:44.841Z,13.27
2023-02-24T04:12:20.920Z,9.27
2023-02-24T04:14:55.689Z,10.35
2023-02-24T04:17:31.303Z,8.93
2023-02-24T04:20:14.326Z,7.72
2023-02-24T04:22:50.264Z,8.88
2023-02-24T04:25:25.347Z,6.47
2023-02-24T04:27:56.767Z,7.22
2023-02-24T04:30:29.302Z,8.60
2023-02-24T04:32:58.436Z,7.57
2023-02-24T04:35:28.724Z,8.57
2023-02-24T04:37:59.810Z,7.00
2023-02-24T04:40:29.055Z,7.03
2023-02-24T04:42:58.211Z,7.60
2023-02-24T04:45:28.953Z,10.30
2023-02-24T04:48:02.924Z,8.02
2023-02-24T04:50:33.952Z,9.07
2023-02-24T04:53:07.936Z,7.18
2023-02-24T04:55:40.866Z,6.57
2023-02-24T04:58:12.683Z,9.35
2023-02-24T05:00:42.811Z,15.43
2023-02-24T05:03:13.394Z,25.13
2023-02-24T05:05:52.843Z,20.45
2023-02-24T05:08:23.797Z,22.17
2023-02-24T05:10:53.217Z,9.05
2023-02-24T05:13:28.098Z,10.05
2023-02-24T05:15:58.622Z,21.20
2023-02-24T05:18:30.820Z,19.60
2023-02-24T05:21:23.841Z,15.88
2023-02-24T05:23:55.622Z,14.98
2023-02-24T05:26:26.958Z,11.10
2023-02-24T05:28:57.238Z,9.88
2023-02-24T05:31:29.050Z,7.82
2023-02-24T05:34:00.181Z,6.65
2023-02-24T05:36:31.772Z,7.00
2023-02-24T05:39:12.875Z,6.97
2023-02-24T05:41:43.844Z,7.75
2023-02-24T05:44:14.582Z,5.65
2023-02-24T05:46:45.474Z,4.72
2023-02-24T05:49:17.153Z,5.60
2023-02-24T05:51:55.512Z,6.90
2023-02-24T05:54:30.268Z,5.82
2023-02-24T05:57:01.563Z,6.57
2023-02-24T05:59:34.001Z,4.97
2023-02-24T06:02:07.926Z,5.18
2023-02-24T06:04:41.839Z,6.13
2023-02-24T06:07:19.932Z,4.78
2023-02-24T06:09:54.441Z,5.15
2023-02-24T06:12:25.069Z,6.35
2023-02-24T06:14:54.119Z,5.97
2023-02-24T06:17:23.726Z,7.50
2023-02-24T06:19:54.054Z,9.13
2023-02-24T06:22:25.852Z,7.38
2023-02-24T06:24:57.679Z,4.50
2023-02-24T06:27:27.891Z,5.18
2023-02-24T06:29:57.520Z,5.97
2023-02-24T06:32:28.750Z,3.42
2023-02-24T06:34:58.262Z,4.22
2023-02-24T06:37:27.216Z,3.50
2023-02-24T06:39:59.269Z,4.72
2023-02-24T06:42:28.559Z,3.88
2023-02-24T06:44:57.488Z,4.28
2023-02-24T06:47:27.766Z,3.13
2023-02-24T06:49:56.700Z,3.22
2023-02-24T06:52:27.234Z,4.53
2023-02-24T06:54:58.127Z,4.53
2023-02-24T06:57:27.201Z,3.40
2023-02-24T06:59:56.978Z,4.45
2023-02-24T07:02:30.796Z,5.18
2023-02-24T07:04:59.829Z,6.68
2023-02-24T07:07:29.932Z,7.10
2023-02-24T07:10:00.857Z,5.93
2023-02-24T07:12:30.074Z,6.50
2023-02-24T07:14:59.021Z,6.03
2023-02-24T07:17:27.983Z,6.90
2023-02-24T07:19:58.045Z,8.48
2023-02-24T07:22:27.223Z,6.65
2023-02-24T07:25:01.205Z,4.20
2023-02-24T07:27:32.124Z,3.78
2023-02-24T07:30:06.835Z,6.65
2023-02-24T07:32:36.175Z,3.10
2023-02-24T07:35:05.482Z,5.15
2023-02-24T07:37:35.675Z,3.45
2023-02-24T07:40:08.802Z,3.28
2023-02-24T07:42:39.862Z,4.50
2023-02-24T07:45:10.305Z,3.25
2023-02-24T07:47:39.267Z,6.57
2023-02-24T07:50:14.340Z,2.40
2023-02-24T07:52:43.367Z,2.53
2023-02-24T07:55:12.830Z,3.85
2023-02-24T07:57:47.404Z,3.50
2023-02-24T08:00:19.547Z,4.53
2023-02-24T08:02:51.129Z,3.53
2023-02-24T08:05:20.136Z,2.47
2023-02-24T08:07:53.160Z,3.25
2023-02-24T08:10:25.264Z,2.20
2023-02-24T08:12:57.324Z,4.50
2023-02-24T08:15:34.726Z,4.88
2023-02-24T08:18:04.070Z,4.65
2023-02-24T08:20:52.181Z,5.30
2023-02-24T08:23:24.246Z,10.20
2023-02-24T08:25:54.486Z,35.00
2023-02-24T08:28:27.655Z,24.27
2023-02-24T08:30:56.817Z,10.32
2023-02-24T08:33:30.826Z,4.85
2023-02-24T08:36:02.980Z,5.07
2023-02-24T08:38:40.600Z,3.38
2023-02-24T08:41:18.660Z,5.85
2023-02-24T08:43:50.041Z,4.43
2023-02-24T08:46:24.308Z,4.25
2023-02-24T08:48:57.535Z,3.28
2023-02-24T08:51:35.372Z,2.28
2023-02-24T08:54:11.767Z,4.05
2023-02-24T08:56:49.926Z,4.22
2023-02-24T08:59:30.099Z,4.07
2023-02-24T09:02:17.958Z,2.15
2023-02-24T09:04:48.059Z,5.85
2023-02-24T09:07:18.926Z,4.82
2023-02-24T09:09:48.472Z,4.00
2023-02-24T09:12:25.353Z,3.15
2023-02-24T09:14:58.371Z,2.42
2023-02-24T09:17:41.580Z,2.38
2023-02-24T09:20:28.182Z,2.55
2023-02-24T09:22:58.791Z,2.10
2023-02-24T09:25:49.181Z,3.50
2023-02-24T09:28:19.328Z,3.05
2023-02-24T09:30:54.382Z,2.85
2023-02-24T09:33:25.928Z,3.13
2023-02-24T09:36:11.465Z,3.10
2023-02-24T09:39:00.691Z,3.35
2023-02-24T09:41:45.900Z,2.15
2023-02-24T09:44:19.093Z,2.42
2023-02-24T09:46:56.832Z,7.40
2023-02-24T09:49:40.649Z,4.13
2023-02-24T09:52:20.683Z,3.50
2023-02-24T09:55:09.453Z,4.00
2023-02-24T09:58:03.632Z,4.10
2023-02-24T10:00:34.456Z,4.22
2023-02-24T10:03:20.467Z,5.63
2023-02-24T10:05:59.877Z,3.57
2023-02-24T10:08:35.962Z,6.18
2023-02-24T10:11:08.470Z,4.20
2023-02-24T10:13:44.965Z,3.60
2023-02-24T10:19:01.812Z,5.60
2023-02-24T10:21:50.270Z,3.42
2023-02-24T10:24:30.216Z,2.03
2023-02-24T10:27:08.375Z,2.30
2023-02-24T10:29:56.321Z,2.72
2023-02-24T10:32:34.697Z,4.03
2023-02-24T10:35:07.055Z,3.92
2023-02-24T10:37:35.999Z,1.92
2023-02-24T10:40:18.149Z,2.20
2023-02-24T10:42:49.504Z,2.97
2023-02-24T10:45:25.311Z,2.67
2023-02-24T10:47:59.482Z,1.73
2023-02-24T10:50:34.892Z,2.00
2023-02-24T10:55:44.677Z,1.75
2023-02-24T10:58:28.615Z,2.40
2023-02-24T11:01:13.159Z,3.63
2023-02-24T11:04:01.973Z,3.42
2023-02-24T11:06:42.572Z,2.42
2023-02-24T11:09:33.068Z,1.88
2023-02-24T11:12:26.095Z,3.05
2023-02-24T11:15:17.674Z,3.08
2023-02-24T11:17:54.473Z,2.08
2023-02-24T11:20:47.709Z,2.00
2023-02-24T11:23:23.748Z,4.90
2023-02-24T11:25:55.175Z,3.15
2023-02-24T11:28:56.829Z,4.70
2023-02-24T11:31:45.858Z,3.22
2023-02-24T11:34:26.009Z,4.75
2023-02-24T11:37:03.662Z,2.70
2023-02-24T11:39:46.793Z,2.80
2023-02-24T11:42:23.607Z,5.38
2023-02-24T11:44:59.077Z,3.70
2023-02-24T11:47:37.574Z,4.65
2023-02-24T11:50:24.822Z,2.60
2023-02-24T11:52:55.636Z,4.25
2023-02-24T11:55:35.992Z,3.58
2023-02-24T11:58:14.081Z,2.83
2023-02-24T12:00:52.679Z,1.85
2023-02-24T12:03:31.637Z,3.50
2023-02-24T12:06:14.841Z,4.47
2023-02-24T12:08:46.672Z,5.13
2023-02-24T12:11:26.488Z,2.65
2023-02-24T12:14:05.722Z,3.20
2023-02-24T12:16:39.970Z,3.50
2023-02-24T12:19:21.021Z,4.28
2023-02-24T12:21:54.543Z,3.63
2023-02-24T12:24:24.703Z,4.82
2023-02-24T12:27:07.107Z,2.60
2023-02-24T12:29:55.370Z,4.88
2023-02-24T12:32:32.282Z,3.45
2023-02-24T12:35:12.724Z,3.35
2023-02-24T12:37:56.090Z,2.28
2023-02-24T12:40:34.580Z,4.88
2023-02-24T12:43:18.415Z,2.90
2023-02-24T12:45:55.023Z,4.30
2023-02-24T12:48:45.972Z,5.38
2023-02-24T12:51:22.901Z,2.80
2023-02-24T12:54:04.681Z,4.45
2023-02-24T12:56:43.520Z,4.03
2023-02-24T12:59:19.825Z,3.60
2023-02-24T13:01:57.906Z,3.88
2023-02-24T13:04:37.395Z,4.22
2023-02-24T13:07:17.768Z,3.33
2023-02-24T13:09:57.346Z,3.72
2023-02-24T13:12:35.191Z,7.25
2023-02-24T13:15:08.334Z,3.33
2023-02-24T13:17:48.796Z,6.05
2023-02-24T13:20:29.987Z,4.03
2023-02-24T13:23:00.640Z,4.97
2023-02-24T13:25:34.543Z,4.70
2023-02-24T13:28:05.273Z,5.65
2023-02-24T13:30:41.975Z,5.53
2023-02-24T13:33:26.484Z,3.30
2023-02-24T13:36:08.954Z,3.92
2023-02-24T13:38:39.941Z,7.30
2023-02-24T13:41:36.733Z,3.42
2023-02-24T13:44:23.868Z,3.83
2023-02-24T13:47:23.424Z,3.20
2023-02-24T13:50:02.697Z,4.38
2023-02-24T13:52:48.482Z,3.83
2023-02-24T13:55:41.232Z,2.80
2023-02-24T13:58:29.358Z,2.78
2023-02-24T14:01:08.464Z,4.57
2023-02-24T14:03:42.005Z,4.47
2023-02-24T14:06:18.106Z,4.32
2023-02-24T14:08:52.283Z,4.75
2023-02-24T14:11:26.953Z,3.53
2023-02-24T14:13:58.149Z,5.00
2023-02-24T14:16:30.167Z,4.35
2023-02-24T14:19:02.903Z,5.18
2023-02-24T14:21:33.761Z,5.68
2023-02-24T14:24:03.865Z,4.35
2023-02-24T14:26:42.747Z,5.18
2023-02-24T14:29:12.178Z,4.20
2023-02-24T14:31:42.457Z,4.07
2023-02-24T14:34:20.928Z,3.75
2023-02-24T14:36:53.026Z,3.95
2023-02-24T14:39:24.976Z,4.70
2023-02-24T14:42:06.324Z,7.90
2023-02-24T14:44:42.406Z,5.43
2023-02-24T14:47:15.267Z,5.70
2023-02-24T14:49:54.772Z,5.60
2023-02-24T14:52:31.665Z,2.83
2023-02-24T14:55:07.159Z,6.68
2023-02-24T14:57:42.904Z,4.43
2023-02-24T15:00:18.480Z,3.90
2023-02-24T15:02:53.292Z,3.43
2023-02-24T15:05:24.264Z,5.60
2023-02-24T15:07:53.555Z,5.10
2023-02-24T15:10:25.183Z,6.80
2023-02-24T15:12:59.198Z,4.43
2023-02-24T15:15:36.051Z,3.17
2023-02-24T15:18:12.356Z,3.35
2023-02-24T15:20:43.094Z,3.22
2023-02-24T15:23:27.939Z,3.83
2023-02-24T15:25:57.058Z,2.35
2023-02-24T15:28:27.810Z,4.03
2023-02-24T15:31:03.216Z,4.30
2023-02-24T15:33:38.277Z,4.80
2023-02-24T15:36:21.523Z,2.90
2023-02-24T15:38:54.286Z,3.17
2023-02-24T15:41:23.813Z,4.00
2023-02-24T15:43:56.772Z,2.78
2023-02-24T15:46:29.699Z,3.92
2023-02-24T15:49:02.492Z,5.05
2023-02-24T15:51:38.355Z,2.75
2023-02-24T15:54:09.754Z,3.58
2023-02-24T15:56:39.189Z,3.88
2023-02-24T15:59:08.294Z,4.47
2023-02-24T16:01:37.250Z,3.53
2023-02-24T16:04:10.173Z,5.30
2023-02-24T16:06:43.074Z,4.78
2023-02-24T16:09:14.996Z,4.43
2023-02-24T16:11:47.764Z,5.47
2023-02-24T16:14:19.347Z,3.47
2023-02-24T16:16:48.542Z,5.72
2023-02-24T16:19:17.894Z,5.63
2023-02-24T16:21:48.753Z,4.90
2023-02-24T16:24:18.795Z,4.28
2023-02-24T16:26:48.681Z,4.78
2023-02-24T16:29:17.679Z,7.88
2023-02-24T16:31:46.872Z,3.67
2023-02-24T16:34:17.437Z,3.72
2023-02-24T16:36:49.077Z,5.07
2023-02-24T16:39:18.147Z,6.47
2023-02-24T16:41:47.151Z,3.90
2023-02-24T16:44:16.221Z,4.63
2023-02-24T16:46:46.391Z,7.20
2023-02-24T16:49:19.597Z,4.68
2023-02-24T16:51:50.365Z,5.93
2023-02-24T16:54:22.583Z,4.38
2023-02-24T16:56:51.627Z,4.90
2023-02-24T16:59:20.761Z,4.47
2023-02-24T17:01:49.978Z,4.53
2023-02-24T17:04:19.019Z,4.07
2023-02-24T17:06:49.892Z,6.80
2023-02-24T17:09:19.022Z,4.55
2023-02-24T17:11:48.011Z,4.38
2023-02-24T17:14:18.939Z,5.75
2023-02-24T17:16:48.289Z,6.43
2023-02-24T17:19:17.311Z,6.97
2023-02-24T17:21:46.961Z,4.40
2023-02-24T17:24:19.793Z,5.85
2023-02-24T17:26:48.812Z,4.72
2023-02-24T17:29:17.755Z,4.05
2023-02-24T17:31:47.037Z,3.15
2023-02-24T17:34:16.278Z,3.67
2023-02-24T17:36:45.341Z,2.53
2023-02-24T17:39:14.849Z,3.53
2023-02-24T17:41:45.632Z,3.75
2023-02-24T17:44:14.609Z,5.35
2023-02-24T17:46:43.675Z,4.15
2023-02-24T17:49:12.789Z,6.10
2023-02-24T17:51:41.718Z,5.32
2023-02-24T17:54:11.000Z,4.20
2023-02-24T17:56:40.608Z,3.78
2023-02-24T17:59:11.197Z,4.93
2023-02-24T18:01:40.229Z,4.85
2023-02-24T18:04:10.943Z,6.03
2023-02-24T18:06:39.913Z,2.70
2023-02-24T18:09:08.976Z,4.40
2023-02-24T18:11:38.038Z,3.78
2023-02-24T18:14:07.174Z,3.42
2023-02-24T18:16:37.938Z,4.35
2023-02-24T18:19:07.038Z,4.25
2023-02-24T18:21:36.195Z,5.22
2023-02-24T18:24:05.727Z,6.93
2023-02-24T18:26:34.898Z,4.35
2023-02-24T18:29:04.039Z,4.28
2023-02-24T18:31:34.320Z,4.68
2023-02-24T18:34:05.415Z,2.88
2023-02-24T18:36:34.589Z,3.70
2023-02-24T18:39:08.951Z,5.85
2023-02-24T18:41:38.099Z,5.80
2023-02-24T18:44:10.515Z,6.75
2023-02-24T18:46:39.957Z,5.97
2023-02-24T18:49:12.423Z,6.93
2023-02-24T18:51:41.508Z,4.30
2023-02-24T18:54:12.158Z,4.00
2023-02-24T18:56:41.182Z,6.68
2023-02-24T18:59:10.208Z,3.10
2023-02-24T19:01:40.282Z,3.55
2023-02-24T19:04:12.315Z,4.22
2023-02-24T19:06:43.029Z,3.47
2023-02-24T19:09:12.755Z,3.95
2023-02-24T19:11:42.748Z,4.75
2023-02-24T19:14:14.771Z,2.60
2023-02-24T19:16:44.054Z,3.10
2023-02-24T19:19:17.312Z,5.75
2023-02-24T19:21:46.669Z,3.47
2023-02-24T19:24:16.627Z,9.00
2023-02-24T19:26:46.745Z,9.65
2023-02-24T19:29:17.103Z,3.15
2023-02-24T19:31:46.525Z,3.90
2023-02-24T19:34:17.333Z,3.55
2023-02-24T19:36:46.412Z,4.22
2023-02-24T19:39:17.524Z,3.95
2023-02-24T19:41:49.206Z,4.47
2023-02-24T19:44:18.741Z,5.10
2023-02-24T19:46:47.928Z,7.13
2023-02-24T19:49:18.570Z,5.50
2023-02-24T19:51:48.409Z,4.38
2023-02-24T19:54:17.664Z,4.20
2023-02-24T19:56:46.718Z,7.25
2023-02-24T19:59:16.265Z,5.35
2023-02-24T20:01:45.575Z,4.65
2023-02-24T20:04:14.545Z,7.20
2023-02-24T20:06:46.125Z,5.60
2023-02-24T20:09:16.805Z,5.50
2023-02-24T20:11:46.894Z,4.72
2023-02-24T20:14:16.944Z,4.43
2023-02-24T20:16:47.604Z,3.47
2023-02-24T20:19:18.114Z,4.60
2023-02-24T20:21:48.773Z,5.10
2023-02-24T20:24:18.981Z,4.38
2023-02-24T20:26:50.459Z,5.95
2023-02-24T20:29:21.900Z,3.78
2023-02-24T20:31:51.112Z,3.75
2023-02-24T20:34:20.222Z,5.90
2023-02-24T20:36:50.840Z,4.07
2023-02-24T20:39:20.108Z,3.17
2023-02-24T20:41:51.420Z,5.40
2023-02-24T20:44:20.393Z,3.33
2023-02-24T20:46:49.397Z,3.33
2023-02-24T20:49:18.338Z,5.15
2023-02-24T20:51:47.359Z,4.38
2023-02-24T20:54:18.239Z,4.30
2023-02-24T20:56:49.066Z,6.28
2023-02-24T20:59:19.977Z,4.47
2023-02-24T21:01:50.112Z,6.28
2023-02-24T21:04:21.199Z,5.95
2023-02-24T21:06:52.749Z,5.15
2023-02-24T21:09:23.420Z,4.88
2023-02-24T21:11:52.434Z,4.72
2023-02-24T21:14:22.914Z,6.57
2023-02-24T21:16:51.927Z,6.70
2023-02-24T21:19:20.974Z,5.60
2023-02-24T21:21:50.174Z,5.57
2023-02-24T21:24:19.396Z,4.65
2023-02-24T21:26:50.375Z,4.65
2023-02-24T21:29:19.514Z,4.00
2023-02-24T21:31:49.645Z,3.60
2023-02-24T21:34:19.570Z,3.13
2023-02-24T21:36:48.569Z,4.45
2023-02-24T21:39:18.583Z,4.75
2023-02-24T21:41:49.346Z,4.00
2023-02-24T21:44:18.307Z,4.82
2023-02-24T21:46:47.436Z,3.40
2023-02-24T21:49:19.022Z,4.05
2023-02-24T21:51:51.439Z,3.90
2023-02-24T21:54:20.624Z,7.30
2023-02-24T21:56:51.212Z,9.32
2023-02-24T21:59:20.345Z,5.47
2023-02-24T22:01:49.395Z,6.70
2023-02-24T22:04:20.965Z,4.90
2023-02-24T22:06:50.059Z,4.63
2023-02-24T22:09:22.232Z,4.03
2023-02-24T22:11:52.862Z,5.30
2023-02-24T22:14:22.167Z,3.70
2023-02-24T22:16:51.150Z,5.57
2023-02-24T22:19:20.979Z,3.60
2023-02-24T22:21:50.059Z,4.65
2023-02-24T22:24:20.024Z,3.50
2023-02-24T22:26:49.127Z,4.82
2023-02-24T22:29:19.895Z,4.22
2023-02-24T22:31:49.930Z,4.00
2023-02-24T22:34:19.093Z,3.30
2023-02-24T22:36:48.157Z,4.82
2023-02-24T22:39:17.793Z,4.35
2023-02-24T22:41:48.386Z,4.95
2023-02-24T22:44:20.352Z,3.53
2023-02-24T22:46:50.093Z,3.78
2023-02-24T22:49:19.277Z,2.20
2023-02-24T22:51:48.253Z,4.90
2023-02-24T22:54:17.723Z,4.95
2023-02-24T22:56:47.179Z,3.95
2023-02-24T22:59:16.856Z,3.55
2023-02-24T23:01:47.647Z,5.47
2023-02-24T23:04:18.901Z,4.78
2023-02-24T23:06:48.423Z,4.38
2023-02-24T23:09:20.517Z,5.00
2023-02-24T23:11:49.844Z,4.38
2023-02-24T23:14:19.255Z,4.72
2023-02-24T23:16:56.560Z,2.60
2023-02-24T23:19:25.688Z,3.70
2023-02-24T23:21:55.580Z,4.90
2023-02-24T23:24:24.916Z,4.38
2023-02-24T23:26:55.148Z,3.55
2023-02-24T23:29:26.044Z,5.03
2023-02-24T23:31:56.947Z,3.58
2023-02-24T23:34:26.534Z,3.38
2023-02-24T23:36:55.462Z,5.93
2023-02-24T23:39:24.584Z,5.20
2023-02-24T23:41:57.337Z,5.05
2023-02-24T23:44:27.119Z,5.30
2023-02-24T23:46:59.369Z,3.13
2023-02-24T23:49:42.534Z,4.22
2023-02-24T23:52:16.481Z,4.10
2023-02-24T23:54:47.737Z,3.88
2023-02-24T23:57:16.729Z,3.22
2023-02-24T23:59:45.782Z,3.00
